sensor_id;sensor_type;location;lat;lon;timestamp;P1;durP1;ratioP1;P2;durP2;ratioP2
40116;SDS011;25829;50.228;18.936;2022-07-17T00:02:25;2.15;;;1.95;;
40116;SDS011;25829;50.228;18.936;2022-07-17T00:05:26;2.88;;;2.20;;
40116;SDS011;25829;50.228;18.936;2022-07-17T00:08:27;2.33;;;2.13;;
40116;SDS011;25829;50.228;18.936;2022-07-17T00:11:27;2.80;;;1.90;;
40116;SDS011;25829;50.228;18.936;2022-07-17T00:14:28;2.30;;;2.10;;
40116;SDS011;25829;50.228;18.936;2022-07-17T00:17:29;2.50;;;2.30;;
40116;SDS011;25829;50.228;18.936;2022-07-17T00:20:30;2.63;;;2.42;;
40116;SDS011;25829;50.228;18.936;2022-07-17T00:23:31;2.90;;;2.20;;
40116;SDS011;25829;50.228;18.936;2022-07-17T00:26:32;2.30;;;2.10;;
40116;SDS011;25829;50.228;18.936;2022-07-17T00:29:34;2.40;;;2.20;;
40116;SDS011;25829;50.228;18.936;2022-07-17T00:32:35;2.13;;;2.00;;
40116;SDS011;25829;50.228;18.936;2022-07-17T00:35:35;2.25;;;2.05;;
40116;SDS011;25829;50.228;18.936;2022-07-17T00:38:36;2.43;;;2.10;;
40116;SDS011;25829;50.228;18.936;2022-07-17T00:41:37;2.65;;;2.08;;
40116;SDS011;25829;50.228;18.936;2022-07-17T00:44:39;2.20;;;2.00;;
40116;SDS011;25829;50.228;18.936;2022-07-17T00:47:57;2.47;;;1.95;;
40116;SDS011;25829;50.228;18.936;2022-07-17T00:51:03;2.37;;;2.17;;
40116;SDS011;25829;50.228;18.936;2022-07-17T00:54:04;2.33;;;2.13;;
40116;SDS011;25829;50.228;18.936;2022-07-17T00:57:14;2.30;;;2.10;;
40116;SDS011;25829;50.228;18.936;2022-07-17T01:00:16;2.25;;;2.05;;
40116;SDS011;25829;50.228;18.936;2022-07-17T01:03:17;3.28;;;2.10;;
40116;SDS011;25829;50.228;18.936;2022-07-17T01:06:21;2.30;;;1.77;;
40116;SDS011;25829;50.228;18.936;2022-07-17T01:09:21;3.07;;;1.93;;
40116;SDS011;25829;50.228;18.936;2022-07-17T01:12:24;2.30;;;2.08;;
40116;SDS011;25829;50.228;18.936;2022-07-17T01:15:25;2.17;;;1.97;;
40116;SDS011;25829;50.228;18.936;2022-07-17T01:18:26;5.60;;;1.90;;
40116;SDS011;25829;50.228;18.936;2022-07-17T01:21:36;2.13;;;1.90;;
40116;SDS011;25829;50.228;18.936;2022-07-17T01:24:41;2.00;;;1.80;;
40116;SDS011;25829;50.228;18.936;2022-07-17T01:27:41;2.13;;;1.93;;
40116;SDS011;25829;50.228;18.936;2022-07-17T01:30:50;3.20;;;2.40;;
40116;SDS011;25829;50.228;18.936;2022-07-17T01:33:51;2.58;;;2.30;;
40116;SDS011;25829;50.228;18.936;2022-07-17T01:36:52;2.30;;;2.10;;
40116;SDS011;25829;50.228;18.936;2022-07-17T01:39:53;2.30;;;2.10;;
40116;SDS011;25829;50.228;18.936;2022-07-17T01:42:54;2.07;;;1.90;;
40116;SDS011;25829;50.228;18.936;2022-07-17T01:45:55;2.27;;;1.93;;
40116;SDS011;25829;50.228;18.936;2022-07-17T01:48:55;2.03;;;1.87;;
40116;SDS011;25829;50.228;18.936;2022-07-17T01:51:56;2.77;;;2.10;;
40116;SDS011;25829;50.228;18.936;2022-07-17T01:55:00;2.20;;;1.70;;
40116;SDS011;25829;50.228;18.936;2022-07-17T01:58:01;2.10;;;1.90;;
40116;SDS011;25829;50.228;18.936;2022-07-17T02:01:01;2.73;;;2.10;;
40116;SDS011;25829;50.228;18.936;2022-07-17T02:04:02;3.57;;;2.30;;
40116;SDS011;25829;50.228;18.936;2022-07-17T02:07:03;2.53;;;2.03;;
40116;SDS011;25829;50.228;18.936;2022-07-17T02:10:05;2.33;;;2.13;;
40116;SDS011;25829;50.228;18.936;2022-07-17T02:13:07;2.90;;;2.57;;
40116;SDS011;25829;50.228;18.936;2022-07-17T02:16:08;3.03;;;2.20;;
40116;SDS011;25829;50.228;18.936;2022-07-17T02:19:09;3.60;;;2.30;;
40116;SDS011;25829;50.228;18.936;2022-07-17T02:22:09;2.13;;;1.93;;
40116;SDS011;25829;50.228;18.936;2022-07-17T02:25:11;3.00;;;2.00;;
40116;SDS011;25829;50.228;18.936;2022-07-17T02:28:12;3.53;;;2.50;;
40116;SDS011;25829;50.228;18.936;2022-07-17T02:31:13;2.90;;;2.03;;
40116;SDS011;25829;50.228;18.936;2022-07-17T02:34:13;4.20;;;2.33;;
40116;SDS011;25829;50.228;18.936;2022-07-17T02:37:14;4.20;;;2.33;;
40116;SDS011;25829;50.228;18.936;2022-07-17T02:40:15;3.37;;;2.40;;
40116;SDS011;25829;50.228;18.936;2022-07-17T02:43:16;2.10;;;1.97;;
40116;SDS011;25829;50.228;18.936;2022-07-17T02:46:17;3.87;;;2.47;;
40116;SDS011;25829;50.228;18.936;2022-07-17T02:49:17;2.37;;;2.10;;
40116;SDS011;25829;50.228;18.936;2022-07-17T02:52:18;2.57;;;2.37;;
40116;SDS011;25829;50.228;18.936;2022-07-17T02:55:19;3.93;;;2.20;;
40116;SDS011;25829;50.228;18.936;2022-07-17T02:58:20;2.33;;;2.10;;
40116;SDS011;25829;50.228;18.936;2022-07-17T03:01:21;2.40;;;2.20;;
40116;SDS011;25829;50.228;18.936;2022-07-17T03:04:22;2.50;;;2.07;;
40116;SDS011;25829;50.228;18.936;2022-07-17T03:07:23;2.30;;;2.10;;
40116;SDS011;25829;50.228;18.936;2022-07-17T03:10:23;4.20;;;2.00;;
40116;SDS011;25829;50.228;18.936;2022-07-17T03:13:24;2.53;;;2.10;;
40116;SDS011;25829;50.228;18.936;2022-07-17T03:16:25;2.40;;;2.20;;
40116;SDS011;25829;50.228;18.936;2022-07-17T03:19:26;2.77;;;2.20;;
40116;SDS011;25829;50.228;18.936;2022-07-17T03:22:26;6.10;;;2.17;;
40116;SDS011;25829;50.228;18.936;2022-07-17T03:25:27;2.50;;;2.30;;
40116;SDS011;25829;50.228;18.936;2022-07-17T03:28:28;3.58;;;2.45;;
40116;SDS011;25829;50.228;18.936;2022-07-17T03:31:29;3.40;;;2.73;;
40116;SDS011;25829;50.228;18.936;2022-07-17T03:34:30;3.23;;;2.93;;
40116;SDS011;25829;50.228;18.936;2022-07-17T03:37:30;5.33;;;3.10;;
40116;SDS011;25829;50.228;18.936;2022-07-17T03:40:31;6.17;;;2.70;;
40116;SDS011;25829;50.228;18.936;2022-07-17T03:43:32;4.10;;;2.63;;
40116;SDS011;25829;50.228;18.936;2022-07-17T03:46:33;3.57;;;2.33;;
40116;SDS011;25829;50.228;18.936;2022-07-17T03:49:34;3.60;;;3.00;;
40116;SDS011;25829;50.228;18.936;2022-07-17T03:52:35;3.30;;;2.63;;
40116;SDS011;25829;50.228;18.936;2022-07-17T03:55:35;4.80;;;2.60;;
40116;SDS011;25829;50.228;18.936;2022-07-17T03:58:36;2.70;;;2.47;;
40116;SDS011;25829;50.228;18.936;2022-07-17T04:01:37;4.63;;;2.40;;
40116;SDS011;25829;50.228;18.936;2022-07-17T04:04:38;2.63;;;2.30;;
40116;SDS011;25829;50.228;18.936;2022-07-17T04:07:39;2.83;;;2.63;;
40116;SDS011;25829;50.228;18.936;2022-07-17T04:10:41;2.67;;;2.47;;
40116;SDS011;25829;50.228;18.936;2022-07-17T04:13:43;3.33;;;2.65;;
40116;SDS011;25829;50.228;18.936;2022-07-17T04:16:43;4.77;;;2.70;;
40116;SDS011;25829;50.228;18.936;2022-07-17T04:19:44;4.37;;;2.83;;
40116;SDS011;25829;50.228;18.936;2022-07-17T04:22:45;4.70;;;3.03;;
40116;SDS011;25829;50.228;18.936;2022-07-17T04:25:46;4.00;;;2.85;;
40116;SDS011;25829;50.228;18.936;2022-07-17T04:28:46;4.80;;;2.80;;
40116;SDS011;25829;50.228;18.936;2022-07-17T04:31:47;3.97;;;3.20;;
40116;SDS011;25829;50.228;18.936;2022-07-17T04:34:48;3.63;;;2.70;;
40116;SDS011;25829;50.228;18.936;2022-07-17T04:37:49;3.33;;;3.03;;
40116;SDS011;25829;50.228;18.936;2022-07-17T04:40:50;5.15;;;2.90;;
40116;SDS011;25829;50.228;18.936;2022-07-17T04:43:50;4.57;;;3.05;;
40116;SDS011;25829;50.228;18.936;2022-07-17T04:46:51;3.63;;;3.28;;
40116;SDS011;25829;50.228;18.936;2022-07-17T04:49:52;5.90;;;3.10;;
40116;SDS011;25829;50.228;18.936;2022-07-17T04:52:53;11.88;;;2.97;;
40116;SDS011;25829;50.228;18.936;2022-07-17T04:55:53;3.78;;;3.22;;
40116;SDS011;25829;50.228;18.936;2022-07-17T04:58:54;4.88;;;3.33;;
40116;SDS011;25829;50.228;18.936;2022-07-17T05:01:55;5.97;;;2.97;;
40116;SDS011;25829;50.228;18.936;2022-07-17T05:04:56;9.35;;;2.78;;
40116;SDS011;25829;50.228;18.936;2022-07-17T05:07:56;3.30;;;2.70;;
40116;SDS011;25829;50.228;18.936;2022-07-17T05:10:57;8.35;;;3.53;;
40116;SDS011;25829;50.228;18.936;2022-07-17T05:13:58;6.97;;;3.28;;
40116;SDS011;25829;50.228;18.936;2022-07-17T05:16:58;6.65;;;3.45;;
40116;SDS011;25829;50.228;18.936;2022-07-17T05:19:59;5.50;;;3.20;;
40116;SDS011;25829;50.228;18.936;2022-07-17T05:23:00;3.22;;;2.72;;
40116;SDS011;25829;50.228;18.936;2022-07-17T05:26:01;4.57;;;2.78;;
40116;SDS011;25829;50.228;18.936;2022-07-17T05:29:02;4.47;;;2.42;;
40116;SDS011;25829;50.228;18.936;2022-07-17T05:32:03;6.65;;;3.03;;
40116;SDS011;25829;50.228;18.936;2022-07-17T05:35:04;4.80;;;2.80;;
40116;SDS011;25829;50.228;18.936;2022-07-17T05:38:05;4.10;;;2.40;;
40116;SDS011;25829;50.228;18.936;2022-07-17T05:41:06;8.90;;;2.83;;
40116;SDS011;25829;50.228;18.936;2022-07-17T05:44:07;3.55;;;2.28;;
40116;SDS011;25829;50.228;18.936;2022-07-17T05:47:08;7.70;;;3.17;;
40116;SDS011;25829;50.228;18.936;2022-07-17T05:50:09;3.40;;;2.42;;
40116;SDS011;25829;50.228;18.936;2022-07-17T05:53:10;5.85;;;2.80;;
40116;SDS011;25829;50.228;18.936;2022-07-17T05:56:11;5.88;;;2.90;;
40116;SDS011;25829;50.228;18.936;2022-07-17T05:59:12;4.68;;;2.72;;
40116;SDS011;25829;50.228;18.936;2022-07-17T06:02:13;3.83;;;2.58;;
40116;SDS011;25829;50.228;18.936;2022-07-17T06:05:14;5.13;;;2.67;;
40116;SDS011;25829;50.228;18.936;2022-07-17T06:08:14;3.15;;;2.60;;
40116;SDS011;25829;50.228;18.936;2022-07-17T06:11:15;6.82;;;2.40;;
40116;SDS011;25829;50.228;18.936;2022-07-17T06:14:17;12.32;;;3.03;;
40116;SDS011;25829;50.228;18.936;2022-07-17T06:17:17;5.82;;;2.83;;
40116;SDS011;25829;50.228;18.936;2022-07-17T06:20:19;6.95;;;3.25;;
40116;SDS011;25829;50.228;18.936;2022-07-17T06:23:20;7.15;;;2.92;;
40116;SDS011;25829;50.228;18.936;2022-07-17T06:26:21;5.40;;;2.28;;
40116;SDS011;25829;50.228;18.936;2022-07-17T06:29:21;6.25;;;2.50;;
40116;SDS011;25829;50.228;18.936;2022-07-17T06:32:23;5.40;;;2.55;;
40116;SDS011;25829;50.228;18.936;2022-07-17T06:35:25;4.63;;;2.45;;
40116;SDS011;25829;50.228;18.936;2022-07-17T06:38:26;4.13;;;2.20;;
40116;SDS011;25829;50.228;18.936;2022-07-17T06:41:27;4.18;;;2.08;;
40116;SDS011;25829;50.228;18.936;2022-07-17T06:44:28;3.92;;;2.25;;
40116;SDS011;25829;50.228;18.936;2022-07-17T06:47:28;3.72;;;2.28;;
40116;SDS011;25829;50.228;18.936;2022-07-17T06:50:29;4.07;;;2.20;;
40116;SDS011;25829;50.228;18.936;2022-07-17T06:53:30;3.65;;;2.20;;
40116;SDS011;25829;50.228;18.936;2022-07-17T06:56:31;3.42;;;1.88;;
40116;SDS011;25829;50.228;18.936;2022-07-17T06:59:31;2.75;;;1.98;;
40116;SDS011;25829;50.228;18.936;2022-07-17T07:02:32;4.45;;;2.10;;
40116;SDS011;25829;50.228;18.936;2022-07-17T07:05:33;4.07;;;1.90;;
40116;SDS011;25829;50.228;18.936;2022-07-17T07:08:34;2.35;;;1.80;;
40116;SDS011;25829;50.228;18.936;2022-07-17T07:11:36;4.38;;;1.90;;
40116;SDS011;25829;50.228;18.936;2022-07-17T07:14:38;3.55;;;2.00;;
40116;SDS011;25829;50.228;18.936;2022-07-17T07:17:40;5.13;;;1.70;;
40116;SDS011;25829;50.228;18.936;2022-07-17T07:20:41;5.18;;;1.92;;
40116;SDS011;25829;50.228;18.936;2022-07-17T07:23:42;4.15;;;2.30;;
40116;SDS011;25829;50.228;18.936;2022-07-17T07:26:43;4.97;;;2.03;;
40116;SDS011;25829;50.228;18.936;2022-07-17T07:29:44;8.90;;;2.25;;
40116;SDS011;25829;50.228;18.936;2022-07-17T07:32:45;4.95;;;1.88;;
40116;SDS011;25829;50.228;18.936;2022-07-17T07:35:46;6.93;;;2.38;;
40116;SDS011;25829;50.228;18.936;2022-07-17T07:38:47;6.25;;;2.20;;
40116;SDS011;25829;50.228;18.936;2022-07-17T07:41:47;2.88;;;1.58;;
40116;SDS011;25829;50.228;18.936;2022-07-17T07:44:48;5.53;;;1.60;;
40116;SDS011;25829;50.228;18.936;2022-07-17T07:47:49;3.22;;;1.55;;
40116;SDS011;25829;50.228;18.936;2022-07-17T07:50:50;3.83;;;1.63;;
40116;SDS011;25829;50.228;18.936;2022-07-17T07:53:53;3.28;;;1.67;;
40116;SDS011;25829;50.228;18.936;2022-07-17T07:56:53;6.38;;;1.90;;
40116;SDS011;25829;50.228;18.936;2022-07-17T07:59:54;4.88;;;1.75;;
40116;SDS011;25829;50.228;18.936;2022-07-17T08:02:58;2.78;;;1.60;;
40116;SDS011;25829;50.228;18.936;2022-07-17T08:05:59;3.28;;;1.60;;
40116;SDS011;25829;50.228;18.936;2022-07-17T08:09:00;5.63;;;1.50;;
40116;SDS011;25829;50.228;18.936;2022-07-17T08:12:01;5.63;;;1.90;;
40116;SDS011;25829;50.228;18.936;2022-07-17T08:15:04;4.32;;;1.55;;
40116;SDS011;25829;50.228;18.936;2022-07-17T08:18:08;3.67;;;1.30;;
40116;SDS011;25829;50.228;18.936;2022-07-17T08:21:36;3.08;;;1.30;;
40116;SDS011;25829;50.228;18.936;2022-07-17T08:24:37;4.45;;;1.50;;
40116;SDS011;25829;50.228;18.936;2022-07-17T08:27:39;4.10;;;1.80;;
40116;SDS011;25829;50.228;18.936;2022-07-17T08:30:41;3.75;;;2.05;;
40116;SDS011;25829;50.228;18.936;2022-07-17T08:33:42;2.70;;;1.23;;
40116;SDS011;25829;50.228;18.936;2022-07-17T08:36:43;2.38;;;1.30;;
40116;SDS011;25829;50.228;18.936;2022-07-17T08:39:44;4.20;;;1.90;;
40116;SDS011;25829;50.228;18.936;2022-07-17T08:42:44;2.22;;;1.20;;
40116;SDS011;25829;50.228;18.936;2022-07-17T08:45:45;4.43;;;1.10;;
40116;SDS011;25829;50.228;18.936;2022-07-17T08:48:48;2.40;;;1.10;;
40116;SDS011;25829;50.228;18.936;2022-07-17T08:51:55;3.58;;;1.40;;
40116;SDS011;25829;50.228;18.936;2022-07-17T08:54:58;3.28;;;1.48;;
40116;SDS011;25829;50.228;18.936;2022-07-17T08:57:59;3.90;;;1.38;;
40116;SDS011;25829;50.228;18.936;2022-07-17T09:01:00;4.38;;;1.27;;
40116;SDS011;25829;50.228;18.936;2022-07-17T09:04:04;2.20;;;0.95;;
40116;SDS011;25829;50.228;18.936;2022-07-17T09:07:06;3.47;;;1.60;;
40116;SDS011;25829;50.228;18.936;2022-07-17T09:10:10;6.93;;;1.30;;
40116;SDS011;25829;50.228;18.936;2022-07-17T09:16:21;2.60;;;1.30;;
40116;SDS011;25829;50.228;18.936;2022-07-17T09:19:33;3.55;;;1.10;;
40116;SDS011;25829;50.228;18.936;2022-07-17T09:22:38;2.75;;;1.25;;
40116;SDS011;25829;50.228;18.936;2022-07-17T09:25:40;4.38;;;1.17;;
40116;SDS011;25829;50.228;18.936;2022-07-17T09:28:45;5.50;;;1.48;;
40116;SDS011;25829;50.228;18.936;2022-07-17T09:31:46;3.60;;;1.20;;
40116;SDS011;25829;50.228;18.936;2022-07-17T09:34:53;1.90;;;1.20;;
40116;SDS011;25829;50.228;18.936;2022-07-17T09:38:00;1.65;;;1.17;;
40116;SDS011;25829;50.228;18.936;2022-07-17T09:44:12;2.20;;;1.20;;
40116;SDS011;25829;50.228;18.936;2022-07-17T09:47:13;3.20;;;1.50;;
40116;SDS011;25829;50.228;18.936;2022-07-17T09:50:16;2.63;;;1.13;;
40116;SDS011;25829;50.228;18.936;2022-07-17T09:53:20;2.47;;;1.20;;
40116;SDS011;25829;50.228;18.936;2022-07-17T09:56:21;1.75;;;1.17;;
40116;SDS011;25829;50.228;18.936;2022-07-17T09:59:23;1.80;;;1.20;;
40116;SDS011;25829;50.228;18.936;2022-07-17T10:02:26;2.47;;;1.20;;
40116;SDS011;25829;50.228;18.936;2022-07-17T10:05:30;3.45;;;1.35;;
40116;SDS011;25829;50.228;18.936;2022-07-17T10:08:31;1.50;;;1.20;;
40116;SDS011;25829;50.228;18.936;2022-07-17T10:11:37;2.25;;;1.27;;
40116;SDS011;25829;50.228;18.936;2022-07-17T10:14:39;3.30;;;1.30;;
40116;SDS011;25829;50.228;18.936;2022-07-17T10:17:41;1.92;;;1.25;;
40116;SDS011;25829;50.228;18.936;2022-07-17T10:20:42;2.10;;;1.00;;
40116;SDS011;25829;50.228;18.936;2022-07-17T10:23:47;2.25;;;1.40;;
40116;SDS011;25829;50.228;18.936;2022-07-17T10:27:05;3.35;;;1.20;;
40116;SDS011;25829;50.228;18.936;2022-07-17T10:30:07;2.97;;;1.55;;
40116;SDS011;25829;50.228;18.936;2022-07-17T10:33:09;3.75;;;1.50;;
40116;SDS011;25829;50.228;18.936;2022-07-17T10:36:31;6.35;;;1.30;;
40116;SDS011;25829;50.228;18.936;2022-07-17T10:39:33;3.42;;;1.35;;
40116;SDS011;25829;50.228;18.936;2022-07-17T10:42:54;1.73;;;0.95;;
40116;SDS011;25829;50.228;18.936;2022-07-17T10:46:04;2.85;;;1.17;;
40116;SDS011;25829;50.228;18.936;2022-07-17T10:49:05;3.20;;;1.08;;
40116;SDS011;25829;50.228;18.936;2022-07-17T10:52:08;2.97;;;1.55;;
40116;SDS011;25829;50.228;18.936;2022-07-17T10:55:21;2.75;;;1.13;;
40116;SDS011;25829;50.228;18.936;2022-07-17T10:58:24;2.55;;;1.35;;
40116;SDS011;25829;50.228;18.936;2022-07-17T11:01:26;2.17;;;1.40;;
40116;SDS011;25829;50.228;18.936;2022-07-17T11:04:35;1.95;;;1.13;;
40116;SDS011;25829;50.228;18.936;2022-07-17T11:07:53;4.30;;;1.20;;
40116;SDS011;25829;50.228;18.936;2022-07-17T11:10:59;1.55;;;1.30;;
40116;SDS011;25829;50.228;18.936;2022-07-17T11:17:19;4.55;;;1.30;;
40116;SDS011;25829;50.228;18.936;2022-07-17T11:20:20;2.28;;;1.30;;
40116;SDS011;25829;50.228;18.936;2022-07-17T11:23:21;2.22;;;1.25;;
40116;SDS011;25829;50.228;18.936;2022-07-17T11:26:24;1.15;;;1.00;;
40116;SDS011;25829;50.228;18.936;2022-07-17T11:29:25;1.50;;;1.05;;
40116;SDS011;25829;50.228;18.936;2022-07-17T11:32:33;2.58;;;1.38;;
40116;SDS011;25829;50.228;18.936;2022-07-17T11:35:35;3.83;;;1.00;;
40116;SDS011;25829;50.228;18.936;2022-07-17T11:38:35;2.35;;;1.42;;
40116;SDS011;25829;50.228;18.936;2022-07-17T11:41:38;4.00;;;1.27;;
40116;SDS011;25829;50.228;18.936;2022-07-17T11:44:50;2.75;;;1.20;;
40116;SDS011;25829;50.228;18.936;2022-07-17T11:47:54;2.15;;;1.17;;
40116;SDS011;25829;50.228;18.936;2022-07-17T11:51:01;5.43;;;1.45;;
40116;SDS011;25829;50.228;18.936;2022-07-17T11:54:03;1.95;;;1.35;;
40116;SDS011;25829;50.228;18.936;2022-07-17T11:57:08;4.65;;;1.50;;
40116;SDS011;25829;50.228;18.936;2022-07-17T12:00:09;5.13;;;1.23;;
40116;SDS011;25829;50.228;18.936;2022-07-17T12:03:11;3.35;;;1.90;;
40116;SDS011;25829;50.228;18.936;2022-07-17T12:06:11;2.85;;;1.63;;
40116;SDS011;25829;50.228;18.936;2022-07-17T12:09:12;2.97;;;1.35;;
40116;SDS011;25829;50.228;18.936;2022-07-17T12:12:20;1.75;;;1.20;;
40116;SDS011;25829;50.228;18.936;2022-07-17T12:18:40;2.13;;;1.40;;
40116;SDS011;25829;50.228;18.936;2022-07-17T12:25:01;2.35;;;1.70;;
40116;SDS011;25829;50.228;18.936;2022-07-17T12:28:02;5.50;;;1.63;;
40116;SDS011;25829;50.228;18.936;2022-07-17T12:31:03;6.65;;;3.15;;
40116;SDS011;25829;50.228;18.936;2022-07-17T12:34:04;5.38;;;1.73;;
40116;SDS011;25829;50.228;18.936;2022-07-17T12:37:05;4.25;;;1.70;;
40116;SDS011;25829;50.228;18.936;2022-07-17T12:40:07;5.13;;;2.10;;
40116;SDS011;25829;50.228;18.936;2022-07-17T12:43:08;4.05;;;1.63;;
40116;SDS011;25829;50.228;18.936;2022-07-17T12:46:09;4.88;;;1.60;;
40116;SDS011;25829;50.228;18.936;2022-07-17T12:49:10;4.43;;;1.65;;
40116;SDS011;25829;50.228;18.936;2022-07-17T12:52:11;2.25;;;1.45;;
40116;SDS011;25829;50.228;18.936;2022-07-17T12:55:13;3.30;;;1.60;;
40116;SDS011;25829;50.228;18.936;2022-07-17T12:58:14;3.35;;;1.33;;
40116;SDS011;25829;50.228;18.936;2022-07-17T13:01:15;3.10;;;1.50;;
40116;SDS011;25829;50.228;18.936;2022-07-17T13:04:17;2.78;;;1.40;;
40116;SDS011;25829;50.228;18.936;2022-07-17T13:07:21;1.90;;;1.08;;
40116;SDS011;25829;50.228;18.936;2022-07-17T13:10:22;2.60;;;1.33;;
40116;SDS011;25829;50.228;18.936;2022-07-17T13:13:24;2.90;;;1.40;;
40116;SDS011;25829;50.228;18.936;2022-07-17T13:16:25;2.00;;;1.30;;
40116;SDS011;25829;50.228;18.936;2022-07-17T13:19:26;5.95;;;1.50;;
40116;SDS011;25829;50.228;18.936;2022-07-17T13:22:26;1.65;;;1.45;;
40116;SDS011;25829;50.228;18.936;2022-07-17T13:25:27;2.42;;;1.30;;
40116;SDS011;25829;50.228;18.936;2022-07-17T13:28:28;2.22;;;1.13;;
40116;SDS011;25829;50.228;18.936;2022-07-17T13:31:30;1.10;;;0.90;;
40116;SDS011;25829;50.228;18.936;2022-07-17T13:34:31;3.28;;;1.27;;
40116;SDS011;25829;50.228;18.936;2022-07-17T13:37:31;4.38;;;1.50;;
40116;SDS011;25829;50.228;18.936;2022-07-17T13:40:32;1.75;;;1.10;;
40116;SDS011;25829;50.228;18.936;2022-07-17T13:43:33;2.38;;;1.10;;
40116;SDS011;25829;50.228;18.936;2022-07-17T13:46:34;3.20;;;1.20;;
40116;SDS011;25829;50.228;18.936;2022-07-17T13:49:35;3.85;;;1.30;;
40116;SDS011;25829;50.228;18.936;2022-07-17T13:52:36;4.35;;;1.38;;
40116;SDS011;25829;50.228;18.936;2022-07-17T13:55:38;1.55;;;1.23;;
40116;SDS011;25829;50.228;18.936;2022-07-17T13:58:39;3.13;;;1.33;;
40116;SDS011;25829;50.228;18.936;2022-07-17T14:01:40;4.38;;;1.48;;
40116;SDS011;25829;50.228;18.936;2022-07-17T14:04:40;2.00;;;1.30;;
40116;SDS011;25829;50.228;18.936;2022-07-17T14:07:41;1.80;;;1.00;;
40116;SDS011;25829;50.228;18.936;2022-07-17T14:10:43;3.50;;;1.25;;
40116;SDS011;25829;50.228;18.936;2022-07-17T14:13:44;1.75;;;1.30;;
40116;SDS011;25829;50.228;18.936;2022-07-17T14:16:44;1.85;;;1.20;;
40116;SDS011;25829;50.228;18.936;2022-07-17T14:19:45;1.25;;;0.95;;
40116;SDS011;25829;50.228;18.936;2022-07-17T14:22:46;2.80;;;1.13;;
40116;SDS011;25829;50.228;18.936;2022-07-17T14:25:48;2.85;;;1.15;;
40116;SDS011;25829;50.228;18.936;2022-07-17T14:28:49;3.25;;;1.55;;
40116;SDS011;25829;50.228;18.936;2022-07-17T14:31:50;1.90;;;1.20;;
40116;SDS011;25829;50.228;18.936;2022-07-17T14:34:51;1.98;;;1.35;;
40116;SDS011;25829;50.228;18.936;2022-07-17T14:37:52;1.80;;;1.30;;
40116;SDS011;25829;50.228;18.936;2022-07-17T14:40:53;4.07;;;1.10;;
40116;SDS011;25829;50.228;18.936;2022-07-17T14:43:54;2.55;;;1.08;;
40116;SDS011;25829;50.228;18.936;2022-07-17T14:46:55;2.45;;;1.20;;
40116;SDS011;25829;50.228;18.936;2022-07-17T14:49:55;1.83;;;1.00;;
40116;SDS011;25829;50.228;18.936;2022-07-17T14:52:56;1.83;;;1.10;;
40116;SDS011;25829;50.228;18.936;2022-07-17T14:55:57;1.77;;;1.00;;
40116;SDS011;25829;50.228;18.936;2022-07-17T14:58:58;3.22;;;1.30;;
40116;SDS011;25829;50.228;18.936;2022-07-17T15:01:58;3.78;;;1.42;;
40116;SDS011;25829;50.228;18.936;2022-07-17T15:04:59;2.22;;;1.10;;
40116;SDS011;25829;50.228;18.936;2022-07-17T15:08:00;3.50;;;1.25;;
40116;SDS011;25829;50.228;18.936;2022-07-17T15:11:01;3.75;;;1.15;;
40116;SDS011;25829;50.228;18.936;2022-07-17T15:14:01;2.00;;;1.10;;
40116;SDS011;25829;50.228;18.936;2022-07-17T15:17:02;1.45;;;1.00;;
40116;SDS011;25829;50.228;18.936;2022-07-17T15:20:03;1.90;;;1.30;;
40116;SDS011;25829;50.228;18.936;2022-07-17T15:23:04;1.38;;;0.90;;
40116;SDS011;25829;50.228;18.936;2022-07-17T15:26:05;1.58;;;1.15;;
40116;SDS011;25829;50.228;18.936;2022-07-17T15:29:21;2.40;;;1.10;;
40116;SDS011;25829;50.228;18.936;2022-07-17T15:32:22;1.95;;;1.20;;
40116;SDS011;25829;50.228;18.936;2022-07-17T15:35:43;3.53;;;1.10;;
40116;SDS011;25829;50.228;18.936;2022-07-17T15:38:45;1.92;;;1.00;;
40116;SDS011;25829;50.228;18.936;2022-07-17T15:41:46;3.05;;;1.20;;
40116;SDS011;25829;50.228;18.936;2022-07-17T15:47:52;2.35;;;1.10;;
40116;SDS011;25829;50.228;18.936;2022-07-17T15:50:54;1.23;;;0.95;;
40116;SDS011;25829;50.228;18.936;2022-07-17T15:54:05;2.95;;;1.02;;
40116;SDS011;25829;50.228;18.936;2022-07-17T15:57:08;1.67;;;1.20;;
40116;SDS011;25829;50.228;18.936;2022-07-17T16:00:09;3.72;;;1.27;;
40116;SDS011;25829;50.228;18.936;2022-07-17T16:03:13;1.65;;;1.20;;
40116;SDS011;25829;50.228;18.936;2022-07-17T16:06:14;2.35;;;1.10;;
40116;SDS011;25829;50.228;18.936;2022-07-17T16:09:15;3.10;;;1.20;;
40116;SDS011;25829;50.228;18.936;2022-07-17T16:12:17;4.80;;;1.25;;
40116;SDS011;25829;50.228;18.936;2022-07-17T16:15:18;5.13;;;1.17;;
40116;SDS011;25829;50.228;18.936;2022-07-17T16:18:18;3.20;;;1.25;;
40116;SDS011;25829;50.228;18.936;2022-07-17T16:21:20;1.48;;;1.05;;
40116;SDS011;25829;50.228;18.936;2022-07-17T16:24:20;4.85;;;1.45;;
40116;SDS011;25829;50.228;18.936;2022-07-17T16:27:21;1.48;;;1.05;;
40116;SDS011;25829;50.228;18.936;2022-07-17T16:33:40;2.38;;;1.40;;
40116;SDS011;25829;50.228;18.936;2022-07-17T16:36:40;3.13;;;1.15;;
40116;SDS011;25829;50.228;18.936;2022-07-17T16:39:41;3.25;;;1.40;;
40116;SDS011;25829;50.228;18.936;2022-07-17T16:42:42;2.72;;;1.20;;
40116;SDS011;25829;50.228;18.936;2022-07-17T16:45:43;1.48;;;1.33;;
40116;SDS011;25829;50.228;18.936;2022-07-17T16:48:44;1.20;;;1.10;;
40116;SDS011;25829;50.228;18.936;2022-07-17T16:51:45;2.33;;;1.30;;
40116;SDS011;25829;50.228;18.936;2022-07-17T16:54:48;1.75;;;1.20;;
40116;SDS011;25829;50.228;18.936;2022-07-17T16:57:49;4.57;;;1.10;;
40116;SDS011;25829;50.228;18.936;2022-07-17T17:00:50;2.80;;;1.25;;
40116;SDS011;25829;50.228;18.936;2022-07-17T17:03:51;2.00;;;1.30;;
40116;SDS011;25829;50.228;18.936;2022-07-17T17:06:51;1.75;;;1.10;;
40116;SDS011;25829;50.228;18.936;2022-07-17T17:09:52;1.35;;;1.13;;
40116;SDS011;25829;50.228;18.936;2022-07-17T17:12:53;2.75;;;1.30;;
40116;SDS011;25829;50.228;18.936;2022-07-17T17:15:54;2.03;;;1.20;;
40116;SDS011;25829;50.228;18.936;2022-07-17T17:18:54;1.70;;;1.15;;
40116;SDS011;25829;50.228;18.936;2022-07-17T17:21:55;1.40;;;1.13;;
40116;SDS011;25829;50.228;18.936;2022-07-17T17:24:56;2.22;;;1.40;;
40116;SDS011;25829;50.228;18.936;2022-07-17T17:27:56;1.77;;;1.42;;
40116;SDS011;25829;50.228;18.936;2022-07-17T17:30:57;4.32;;;1.30;;
40116;SDS011;25829;50.228;18.936;2022-07-17T17:33:58;4.70;;;1.27;;
40116;SDS011;25829;50.228;18.936;2022-07-17T17:36:59;3.47;;;1.27;;
40116;SDS011;25829;50.228;18.936;2022-07-17T17:39:59;1.65;;;1.20;;
40116;SDS011;25829;50.228;18.936;2022-07-17T17:43:01;2.40;;;1.50;;
40116;SDS011;25829;50.228;18.936;2022-07-17T17:46:02;2.28;;;1.30;;
40116;SDS011;25829;50.228;18.936;2022-07-17T17:49:06;3.15;;;1.25;;
40116;SDS011;25829;50.228;18.936;2022-07-17T17:52:07;2.72;;;1.45;;
40116;SDS011;25829;50.228;18.936;2022-07-17T17:55:08;1.95;;;1.30;;
40116;SDS011;25829;50.228;18.936;2022-07-17T17:58:09;2.67;;;1.40;;
40116;SDS011;25829;50.228;18.936;2022-07-17T18:01:10;2.08;;;1.60;;
40116;SDS011;25829;50.228;18.936;2022-07-17T18:04:11;1.52;;;1.35;;
40116;SDS011;25829;50.228;18.936;2022-07-17T18:07:12;5.43;;;1.50;;
40116;SDS011;25829;50.228;18.936;2022-07-17T18:10:13;1.65;;;1.10;;
40116;SDS011;25829;50.228;18.936;2022-07-17T18:13:14;1.52;;;1.10;;
40116;SDS011;25829;50.228;18.936;2022-07-17T18:16:15;2.85;;;1.40;;
40116;SDS011;25829;50.228;18.936;2022-07-17T18:19:15;2.03;;;1.40;;
40116;SDS011;25829;50.228;18.936;2022-07-17T18:22:16;3.03;;;1.60;;